sensor_id;sensor_type;location;lat;lon;timestamp;pressure;altitude;pressure_sealevel;temperature;humidity
12951;BME280;6540;50.858;7.232;2023-04-29T00:01:14;51755.69;;;-142.34;31.22
12951;BME280;6540;50.858;7.232;2023-04-29T00:03:39;51765.78;;;-142.34;30.86
12951;BME280;6540;50.858;7.232;2023-04-29T00:06:04;51733.50;;;-142.34;31.74
12951;BME280;6540;50.858;7.232;2023-04-29T00:08:30;51749.66;;;-142.34;29.59
12951;BME280;6540;50.858;7.232;2023-04-29T00:10:55;51729.47;;;-142.34;30.43
12951;BME280;6540;50.858;7.232;2023-04-29T00:13:20;51729.47;;;-142.34;29.47
12951;BME280;6540;50.858;7.232;2023-04-29T00:15:46;51711.31;;;-142.34;29.63
12951;BME280;6540;50.858;7.232;2023-04-29T00:18:12;51737.53;;;-142.34;31.56
12951;BME280;6540;50.858;7.232;2023-04-29T00:20:38;51717.38;;;-142.34;30.00
12951;BME280;6540;50.858;7.232;2023-04-29T00:23:03;51719.38;;;-142.34;29.29
12951;BME280;6540;50.858;7.232;2023-04-29T00:25:28;51759.72;;;-142.34;29.56
12951;BME280;6540;50.858;7.232;2023-04-29T00:27:54;51719.38;;;-142.34;29.97
12951;BME280;6540;50.858;7.232;2023-04-29T00:30:20;51753.69;;;-142.34;32.08
12951;BME280;6540;50.858;7.232;2023-04-29T00:32:45;51749.66;;;-142.34;31.38
12951;BME280;6540;50.858;7.232;2023-04-29T00:35:11;51753.69;;;-142.34;32.07
12951;BME280;6540;50.858;7.232;2023-04-29T00:37:36;51737.53;;;-142.34;30.60
12951;BME280;6540;50.858;7.232;2023-04-29T00:40:02;51727.44;;;-142.34;29.56
12951;BME280;6540;50.858;7.232;2023-04-29T00:42:30;51767.81;;;-142.34;31.72
12951;BME280;6540;50.858;7.232;2023-04-29T00:44:57;51757.72;;;-142.34;30.60
12951;BME280;6540;50.858;7.232;2023-04-29T00:47:22;51717.38;;;-142.34;28.40
12951;BME280;6540;50.858;7.232;2023-04-29T00:49:48;51725.44;;;-142.34;29.45
12951;BME280;6540;50.858;7.232;2023-04-29T00:52:13;51723.41;;;-142.34;29.78
12951;BME280;6540;50.858;7.232;2023-04-29T00:54:39;51721.41;;;-142.34;28.57
12951;BME280;6540;50.858;7.232;2023-04-29T00:57:05;51733.50;;;-142.34;28.69
12951;BME280;6540;50.858;7.232;2023-04-29T00:59:32;51715.34;;;-142.34;29.44
12951;BME280;6540;50.858;7.232;2023-04-29T01:02:01;51745.59;;;-142.34;29.58
12951;BME280;6540;50.858;7.232;2023-04-29T01:04:27;51703.25;;;-142.34;28.07
12951;BME280;6540;50.858;7.232;2023-04-29T01:10:03;51717.38;;;-142.34;27.70
12951;BME280;6540;50.858;7.232;2023-04-29T01:17:43;51729.47;;;-142.34;29.81
12951;BME280;6540;50.858;7.232;2023-04-29T01:20:12;51755.69;;;-142.34;30.00
12951;BME280;6540;50.858;7.232;2023-04-29T01:22:41;51761.75;;;-142.34;29.92
12951;BME280;6540;50.858;7.232;2023-04-29T01:25:07;51745.59;;;-142.34;29.20
12951;BME280;6540;50.858;7.232;2023-04-29T01:35:40;51743.59;;;-142.34;28.90
12951;BME280;6540;50.858;7.232;2023-04-29T01:40:49;51745.59;;;-142.34;29.42
12951;BME280;6540;50.858;7.232;2023-04-29T01:43:22;51777.88;;;-142.34;29.95
12951;BME280;6540;50.858;7.232;2023-04-29T01:45:49;51749.66;;;-142.34;29.95
12951;BME280;6540;50.858;7.232;2023-04-29T01:48:16;51757.72;;;-142.34;30.58
12951;BME280;6540;50.858;7.232;2023-04-29T01:50:42;51802.09;;;-142.34;30.24
12951;BME280;6540;50.858;7.232;2023-04-29T01:53:07;51765.78;;;-142.34;28.71
12951;BME280;6540;50.858;7.232;2023-04-29T01:55:33;51733.50;;;-142.34;29.14
12951;BME280;6540;50.858;7.232;2023-04-29T01:57:58;51777.88;;;-142.34;31.27
12951;BME280;6540;50.858;7.232;2023-04-29T02:00:24;51785.94;;;-142.34;30.73
12951;BME280;6540;50.858;7.232;2023-04-29T02:02:49;51785.94;;;-142.34;31.80
12951;BME280;6540;50.858;7.232;2023-04-29T02:05:14;51812.19;;;-142.34;29.54
12951;BME280;6540;50.858;7.232;2023-04-29T02:07:40;51798.06;;;-142.34;30.49
12951;BME280;6540;50.858;7.232;2023-04-29T02:10:06;51804.13;;;-142.34;30.58
12951;BME280;6540;50.858;7.232;2023-04-29T02:12:32;51812.19;;;-142.34;31.09
12951;BME280;6540;50.858;7.232;2023-04-29T02:14:57;51790.00;;;-142.34;29.80
12951;BME280;6540;50.858;7.232;2023-04-29T02:17:24;51749.66;;;-142.34;29.97
12951;BME280;6540;50.858;7.232;2023-04-29T02:19:49;51777.88;;;-142.34;29.07
12951;BME280;6540;50.858;7.232;2023-04-29T02:22:15;51773.84;;;-142.34;28.58
12951;BME280;6540;50.858;7.232;2023-04-29T02:24:41;51739.56;;;-142.34;29.17
12951;BME280;6540;50.858;7.232;2023-04-29T02:27:06;51721.41;;;-142.34;28.27
12951;BME280;6540;50.858;7.232;2023-04-29T02:29:31;51743.59;;;-142.34;28.12
12951;BME280;6540;50.858;7.232;2023-04-29T02:31:57;51745.59;;;-142.34;28.41
12951;BME280;6540;50.858;7.232;2023-04-29T02:34:22;51769.81;;;-142.34;28.86
12951;BME280;6540;50.858;7.232;2023-04-29T02:36:48;51759.72;;;-142.34;29.31
12951;BME280;6540;50.858;7.232;2023-04-29T02:39:14;51769.81;;;-142.34;30.65
12951;BME280;6540;50.858;7.232;2023-04-29T02:41:39;51753.69;;;-142.34;29.56
12951;BME280;6540;50.858;7.232;2023-04-29T02:44:06;51761.75;;;-142.34;29.17
12951;BME280;6540;50.858;7.232;2023-04-29T02:46:31;51737.53;;;-142.34;29.24
12951;BME280;6540;50.858;7.232;2023-04-29T02:48:59;51765.78;;;-142.34;29.20
12951;BME280;6540;50.858;7.232;2023-04-29T02:51:25;51796.03;;;-142.34;30.25
12951;BME280;6540;50.858;7.232;2023-04-29T02:53:50;51753.69;;;-142.34;28.68
12951;BME280;6540;50.858;7.232;2023-04-29T02:56:16;51753.69;;;-142.34;29.11
12951;BME280;6540;50.858;7.232;2023-04-29T02:58:41;51745.59;;;-142.34;28.57
12951;BME280;6540;50.858;7.232;2023-04-29T03:01:06;51717.38;;;-142.34;28.74
12951;BME280;6540;50.858;7.232;2023-04-29T03:03:32;51711.31;;;-142.34;29.51
12951;BME280;6540;50.858;7.232;2023-04-29T03:05:57;51763.75;;;-142.34;30.58
12951;BME280;6540;50.858;7.232;2023-04-29T03:08:23;51806.13;;;-142.34;31.45
12951;BME280;6540;50.858;7.232;2023-04-29T03:10:48;51798.06;;;-142.34;29.73
12951;BME280;6540;50.858;7.232;2023-04-29T03:13:13;51741.56;;;-142.34;28.46
12951;BME280;6540;50.858;7.232;2023-04-29T03:15:39;51785.94;;;-142.34;28.49
12951;BME280;6540;50.858;7.232;2023-04-29T03:18:04;51790.00;;;-142.34;29.69
12951;BME280;6540;50.858;7.232;2023-04-29T03:20:29;51785.94;;;-142.34;30.35
12951;BME280;6540;50.858;7.232;2023-04-29T03:22:54;51759.72;;;-142.34;29.46
12951;BME280;6540;50.858;7.232;2023-04-29T03:25:20;51733.50;;;-142.34;30.59
12951;BME280;6540;50.858;7.232;2023-04-29T03:27:45;51796.03;;;-142.34;30.54
12951;BME280;6540;50.858;7.232;2023-04-29T03:30:11;51787.97;;;-142.34;29.93
12951;BME280;6540;50.858;7.232;2023-04-29T03:32:36;51753.69;;;-142.34;29.22
12951;BME280;6540;50.858;7.232;2023-04-29T03:35:02;51765.78;;;-142.34;31.17
12951;BME280;6540;50.858;7.232;2023-04-29T03:37:27;51769.81;;;-142.34;30.78
12951;BME280;6540;50.858;7.232;2023-04-29T03:39:53;51794.03;;;-142.34;31.13
12951;BME280;6540;50.858;7.232;2023-04-29T03:42:18;51826.31;;;-142.34;31.34
12951;BME280;6540;50.858;7.232;2023-04-29T03:44:43;51749.66;;;-142.34;28.57
12951;BME280;6540;50.858;7.232;2023-04-29T03:47:09;51753.69;;;-142.34;30.11
12951;BME280;6540;50.858;7.232;2023-04-29T03:49:34;51741.56;;;-142.34;30.54
12951;BME280;6540;50.858;7.232;2023-04-29T03:51:59;51761.75;;;-142.34;29.20
12951;BME280;6540;50.858;7.232;2023-04-29T03:54:25;51765.78;;;-142.34;29.13
12951;BME280;6540;50.858;7.232;2023-04-29T03:56:51;51763.75;;;-142.34;29.55
12951;BME280;6540;50.858;7.232;2023-04-29T03:59:16;51771.84;;;-142.34;28.97
12951;BME280;6540;50.858;7.232;2023-04-29T04:01:41;51790.00;;;-142.34;30.02
12951;BME280;6540;50.858;7.232;2023-04-29T04:04:07;51769.81;;;-142.34;29.17
12951;BME280;6540;50.858;7.232;2023-04-29T04:06:32;51753.69;;;-142.34;29.77
12951;BME280;6540;50.858;7.232;2023-04-29T04:08:57;51741.56;;;-142.34;31.16
12951;BME280;6540;50.858;7.232;2023-04-29T04:11:23;51777.88;;;-142.34;29.29
12951;BME280;6540;50.858;7.232;2023-04-29T04:13:48;51761.75;;;-142.34;28.80
12951;BME280;6540;50.858;7.232;2023-04-29T04:16:14;51729.47;;;-142.34;29.36
12951;BME280;6540;50.858;7.232;2023-04-29T04:18:39;51741.56;;;-142.34;30.17
12951;BME280;6540;50.858;7.232;2023-04-29T04:21:08;51794.03;;;-142.34;31.67
12951;BME280;6540;50.858;7.232;2023-04-29T04:23:34;51787.97;;;-142.34;30.67
12951;BME280;6540;50.858;7.232;2023-04-29T04:25:59;51826.31;;;-142.34;32.03
12951;BME280;6540;50.858;7.232;2023-04-29T04:28:25;51785.94;;;-142.34;32.05
12951;BME280;6540;50.858;7.232;2023-04-29T04:30:50;51783.94;;;-142.34;30.47
12951;BME280;6540;50.858;7.232;2023-04-29T04:33:16;51743.59;;;-142.34;30.42
12951;BME280;6540;50.858;7.232;2023-04-29T04:35:42;51767.81;;;-142.34;31.81
12951;BME280;6540;50.858;7.232;2023-04-29T04:38:07;51779.91;;;-142.34;30.28
12951;BME280;6540;50.858;7.232;2023-04-29T04:40:34;51771.84;;;-142.34;31.66
12951;BME280;6540;50.858;7.232;2023-04-29T04:42:59;51814.19;;;-142.34;30.63
12951;BME280;6540;50.858;7.232;2023-04-29T04:45:27;51777.88;;;-142.34;30.67
12951;BME280;6540;50.858;7.232;2023-04-29T04:47:54;51773.84;;;-142.34;32.28
12951;BME280;6540;50.858;7.232;2023-04-29T04:50:19;51792.00;;;-142.34;30.23
12951;BME280;6540;50.858;7.232;2023-04-29T04:52:45;51773.84;;;-142.34;29.72
12951;BME280;6540;50.858;7.232;2023-04-29T04:55:10;51763.75;;;-142.34;29.46
12951;BME280;6540;50.858;7.232;2023-04-29T04:57:35;51769.81;;;-142.34;29.65
12951;BME280;6540;50.858;7.232;2023-04-29T05:00:01;51757.72;;;-142.34;28.69
12951;BME280;6540;50.858;7.232;2023-04-29T05:02:28;51794.03;;;-142.34;30.00
12951;BME280;6540;50.858;7.232;2023-04-29T05:04:53;51781.91;;;-142.34;29.48
12951;BME280;6540;50.858;7.232;2023-04-29T05:07:19;51785.94;;;-142.34;29.11
12951;BME280;6540;50.858;7.232;2023-04-29T05:09:44;51794.03;;;-142.34;29.26
12951;BME280;6540;50.858;7.232;2023-04-29T05:12:09;51755.69;;;-142.34;29.80
12951;BME280;6540;50.858;7.232;2023-04-29T05:14:35;51761.75;;;-142.34;31.81
12951;BME280;6540;50.858;7.232;2023-04-29T05:17:00;51796.03;;;-142.34;31.45
12951;BME280;6540;50.858;7.232;2023-04-29T05:19:26;51794.03;;;-142.34;32.41
12951;BME280;6540;50.858;7.232;2023-04-29T05:21:54;51771.84;;;-142.34;30.77
12951;BME280;6540;50.858;7.232;2023-04-29T05:24:20;51761.75;;;-142.34;30.90
12951;BME280;6540;50.858;7.232;2023-04-29T05:26:45;51785.94;;;-142.34;32.49
12951;BME280;6540;50.858;7.232;2023-04-29T05:29:11;51854.53;;;-142.34;32.14
12951;BME280;6540;50.858;7.232;2023-04-29T05:31:36;51802.09;;;-142.34;31.82
12951;BME280;6540;50.858;7.232;2023-04-29T05:34:04;51773.84;;;-142.34;29.44
12951;BME280;6540;50.858;7.232;2023-04-29T05:36:29;51779.91;;;-142.34;29.85
12951;BME280;6540;50.858;7.232;2023-04-29T05:38:55;51804.13;;;-142.34;32.20
12951;BME280;6540;50.858;7.232;2023-04-29T05:41:21;51802.09;;;-142.34;30.75
12951;BME280;6540;50.858;7.232;2023-04-29T05:43:49;51816.22;;;-142.34;30.24
12951;BME280;6540;50.858;7.232;2023-04-29T05:46:14;51796.03;;;-142.34;29.71
12951;BME280;6540;50.858;7.232;2023-04-29T05:48:40;51785.94;;;-142.34;29.43
12951;BME280;6540;50.858;7.232;2023-04-29T05:51:06;51783.94;;;-142.34;29.84
12951;BME280;6540;50.858;7.232;2023-04-29T05:53:31;51806.13;;;-142.34;32.44
12951;BME280;6540;50.858;7.232;2023-04-29T05:55:57;51792.00;;;-142.34;31.05
12951;BME280;6540;50.858;7.232;2023-04-29T05:58:22;51765.78;;;-142.34;30.94
12951;BME280;6540;50.858;7.232;2023-04-29T06:00:49;51765.78;;;-142.34;30.70
12951;BME280;6540;50.858;7.232;2023-04-29T06:03:15;51810.16;;;-142.34;30.75
12951;BME280;6540;50.858;7.232;2023-04-29T06:05:40;51790.00;;;-142.34;32.10
12951;BME280;6540;50.858;7.232;2023-04-29T06:08:06;51816.22;;;-142.34;29.21
12951;BME280;6540;50.858;7.232;2023-04-29T06:10:31;51798.06;;;-142.34;30.56
12951;BME280;6540;50.858;7.232;2023-04-29T06:12:58;51824.28;;;-142.34;30.99
12951;BME280;6540;50.858;7.232;2023-04-29T06:15:23;51781.91;;;-142.34;31.95
12951;BME280;6540;50.858;7.232;2023-04-29T06:17:48;51810.16;;;-142.34;31.88
12951;BME280;6540;50.858;7.232;2023-04-29T06:20:14;51814.19;;;-142.34;30.76
12951;BME280;6540;50.858;7.232;2023-04-29T06:22:39;51802.09;;;-142.34;31.12
12951;BME280;6540;50.858;7.232;2023-04-29T06:25:06;51806.13;;;-142.34;29.80
12951;BME280;6540;50.858;7.232;2023-04-29T06:27:32;51790.00;;;-142.34;29.85
12951;BME280;6540;50.858;7.232;2023-04-29T06:29:57;51777.88;;;-142.34;29.25
12951;BME280;6540;50.858;7.232;2023-04-29T06:32:23;51818.22;;;-142.34;29.98
12951;BME280;6540;50.858;7.232;2023-04-29T06:34:48;51790.00;;;-142.34;32.23
12951;BME280;6540;50.858;7.232;2023-04-29T06:37:14;51814.19;;;-142.34;30.93
12951;BME280;6540;50.858;7.232;2023-04-29T06:39:39;51806.13;;;-142.34;30.93
12951;BME280;6540;50.858;7.232;2023-04-29T06:42:04;51785.94;;;-142.34;30.51
12951;BME280;6540;50.858;7.232;2023-04-29T06:44:30;51800.06;;;-142.34;30.58
12951;BME280;6540;50.858;7.232;2023-04-29T06:46:55;51779.91;;;-142.34;30.24
12951;BME280;6540;50.858;7.232;2023-04-29T06:49:21;51798.06;;;-142.34;31.11
12951;BME280;6540;50.858;7.232;2023-04-29T06:51:46;51794.03;;;-142.34;31.40
12951;BME280;6540;50.858;7.232;2023-04-29T06:54:11;51820.25;;;-142.34;30.93
12951;BME280;6540;50.858;7.232;2023-04-29T06:56:37;51769.81;;;-142.34;29.27
12951;BME280;6540;50.858;7.232;2023-04-29T06:59:02;51777.88;;;-142.34;30.02
12951;BME280;6540;50.858;7.232;2023-04-29T07:01:28;51818.22;;;-142.34;32.00
12951;BME280;6540;50.858;7.232;2023-04-29T07:03:54;51777.88;;;-142.34;31.38
12951;BME280;6540;50.858;7.232;2023-04-29T07:06:19;51810.16;;;-142.34;30.39
12951;BME280;6540;50.858;7.232;2023-04-29T07:08:44;51842.44;;;-142.34;32.47
12951;BME280;6540;50.858;7.232;2023-04-29T07:11:10;51785.94;;;-142.34;30.67
12951;BME280;6540;50.858;7.232;2023-04-29T07:13:36;51779.91;;;-142.34;29.92
12951;BME280;6540;50.858;7.232;2023-04-29T07:16:01;51790.00;;;-142.34;30.22
12951;BME280;6540;50.858;7.232;2023-04-29T07:18:26;51810.16;;;-142.34;30.92
12951;BME280;6540;50.858;7.232;2023-04-29T07:20:52;51804.13;;;-142.34;30.57
12951;BME280;6540;50.858;7.232;2023-04-29T07:23:19;51798.06;;;-142.34;29.95
12951;BME280;6540;50.858;7.232;2023-04-29T07:25:45;51765.78;;;-142.34;29.73
12951;BME280;6540;50.858;7.232;2023-04-29T07:28:10;51810.16;;;-142.34;32.10
12951;BME280;6540;50.858;7.232;2023-04-29T07:30:35;51798.06;;;-142.34;30.32
12951;BME280;6540;50.858;7.232;2023-04-29T07:33:01;51826.31;;;-142.34;31.29
12951;BME280;6540;50.858;7.232;2023-04-29T07:35:28;51777.88;;;-142.34;29.61
12951;BME280;6540;50.858;7.232;2023-04-29T07:37:54;51765.78;;;-142.34;29.12
12951;BME280;6540;50.858;7.232;2023-04-29T07:40:22;51775.88;;;-142.34;28.83
12951;BME280;6540;50.858;7.232;2023-04-29T07:42:47;51751.66;;;-142.34;28.95
12951;BME280;6540;50.858;7.232;2023-04-29T07:45:13;51773.84;;;-142.34;29.30
12951;BME280;6540;50.858;7.232;2023-04-29T07:47:39;51775.88;;;-142.34;30.93
12951;BME280;6540;50.858;7.232;2023-04-29T07:50:05;51796.03;;;-142.34;30.74
12951;BME280;6540;50.858;7.232;2023-04-29T07:52:30;51787.97;;;-142.34;29.78
12951;BME280;6540;50.858;7.232;2023-04-29T07:54:56;51794.03;;;-142.34;30.15
12951;BME280;6540;50.858;7.232;2023-04-29T07:57:21;51761.75;;;-142.34;29.35
12951;BME280;6540;50.858;7.232;2023-04-29T07:59:51;51753.69;;;-142.34;28.89
12951;BME280;6540;50.858;7.232;2023-04-29T08:02:16;51745.59;;;-142.34;29.26
12951;BME280;6540;50.858;7.232;2023-04-29T08:04:42;51745.59;;;-142.34;28.95
12951;BME280;6540;50.858;7.232;2023-04-29T08:07:07;51725.44;;;-142.34;29.68
12951;BME280;6540;50.858;7.232;2023-04-29T08:09:33;51757.72;;;-142.34;29.08
12951;BME280;6540;50.858;7.232;2023-04-29T08:11:58;51771.84;;;-142.34;30.34
12951;BME280;6540;50.858;7.232;2023-04-29T08:14:24;51761.75;;;-142.34;29.12
12951;BME280;6540;50.858;7.232;2023-04-29T08:16:49;51745.59;;;-142.34;28.49
12951;BME280;6540;50.858;7.232;2023-04-29T08:19:15;51763.75;;;-142.34;30.07
12951;BME280;6540;50.858;7.232;2023-04-29T08:21:40;51727.44;;;-142.34;29.71
12951;BME280;6540;50.858;7.232;2023-04-29T08:24:05;51751.66;;;-142.34;28.37
12951;BME280;6540;50.858;7.232;2023-04-29T08:26:30;51723.41;;;-142.34;29.24
12951;BME280;6540;50.858;7.232;2023-04-29T08:28:56;51753.69;;;-142.34;29.02
12951;BME280;6540;50.858;7.232;2023-04-29T08:31:21;51753.69;;;-142.34;29.24
12951;BME280;6540;50.858;7.232;2023-04-29T08:33:47;51723.41;;;-142.34;29.08
12951;BME280;6540;50.858;7.232;2023-04-29T08:36:13;51757.72;;;-142.34;29.74
12951;BME280;6540;50.858;7.232;2023-04-29T08:38:39;51739.56;;;-142.34;29.31
12951;BME280;6540;50.858;7.232;2023-04-29T08:41:07;51761.75;;;-142.34;29.66
12951;BME280;6540;50.858;7.232;2023-04-29T08:43:36;51781.91;;;-142.34;29.51
12951;BME280;6540;50.858;7.232;2023-04-29T08:46:02;51743.59;;;-142.34;29.40
12951;BME280;6540;50.858;7.232;2023-04-29T08:48:29;51745.59;;;-142.34;30.31
12951;BME280;6540;50.858;7.232;2023-04-29T08:50:54;51773.84;;;-142.34;32.18
12951;BME280;6540;50.858;7.232;2023-04-29T08:53:22;51790.00;;;-142.34;31.57
12951;BME280;6540;50.858;7.232;2023-04-29T08:55:47;51794.03;;;-142.34;29.66
12951;BME280;6540;50.858;7.232;2023-04-29T08:58:14;51777.88;;;-142.34;31.62
12951;BME280;6540;50.858;7.232;2023-04-29T09:00:44;51761.75;;;-142.34;28.91
12951;BME280;6540;50.858;7.232;2023-04-29T09:03:22;51783.94;;;-142.34;29.78
12951;BME280;6540;50.858;7.232;2023-04-29T09:05:52;51725.44;;;-142.34;29.29
12951;BME280;6540;50.858;7.232;2023-04-29T09:08:23;51695.19;;;-142.34;27.98
12951;BME280;6540;50.858;7.232;2023-04-29T09:10:50;51711.31;;;-142.34;27.66
12951;BME280;6540;50.858;7.232;2023-04-29T09:13:26;51679.03;;;-142.34;28.05
12951;BME280;6540;50.858;7.232;2023-04-29T09:15:52;51749.66;;;-142.34;28.76
12951;BME280;6540;50.858;7.232;2023-04-29T09:21:17;51723.41;;;-142.34;30.43
12951;BME280;6540;50.858;7.232;2023-04-29T09:23:44;51733.50;;;-142.34;29.82
12951;BME280;6540;50.858;7.232;2023-04-29T09:26:09;51733.50;;;-142.34;30.02
12951;BME280;6540;50.858;7.232;2023-04-29T09:28:35;51755.69;;;-142.34;28.77
12951;BME280;6540;50.858;7.232;2023-04-29T09:31:01;51769.81;;;-142.34;28.08
12951;BME280;6540;50.858;7.232;2023-04-29T09:33:30;51745.59;;;-142.34;28.91
12951;BME280;6540;50.858;7.232;2023-04-29T09:35:56;51767.81;;;-142.34;28.08
12951;BME280;6540;50.858;7.232;2023-04-29T09:38:21;51771.84;;;-142.34;29.09
12951;BME280;6540;50.858;7.232;2023-04-29T09:40:47;51771.84;;;-142.34;29.74
12951;BME280;6540;50.858;7.232;2023-04-29T09:43:17;51733.50;;;-142.34;29.26
12951;BME280;6540;50.858;7.232;2023-04-29T09:45:47;51757.72;;;-142.34;28.50
12951;BME280;6540;50.858;7.232;2023-04-29T09:48:13;51785.94;;;-142.34;29.24
12951;BME280;6540;50.858;7.232;2023-04-29T09:50:41;51777.88;;;-142.34;28.68
12951;BME280;6540;50.858;7.232;2023-04-29T09:53:09;51745.59;;;-142.34;28.63
12951;BME280;6540;50.858;7.232;2023-04-29T09:55:35;51723.41;;;-142.34;27.56
12951;BME280;6540;50.858;7.232;2023-04-29T09:58:01;51753.69;;;-142.34;29.66
12951;BME280;6540;50.858;7.232;2023-04-29T10:00:30;51741.56;;;-142.34;28.09
12951;BME280;6540;50.858;7.232;2023-04-29T10:02:58;51763.75;;;-142.34;27.96
12951;BME280;6540;50.858;7.232;2023-04-29T10:05:26;51761.75;;;-142.34;29.92
12951;BME280;6540;50.858;7.232;2023-04-29T10:07:53;51808.16;;;-142.34;29.91
12951;BME280;6540;50.858;7.232;2023-04-29T10:10:20;51781.91;;;-142.34;29.45
12951;BME280;6540;50.858;7.232;2023-04-29T10:12:46;51802.09;;;-142.34;29.21
12951;BME280;6540;50.858;7.232;2023-04-29T10:15:33;51787.97;;;-142.34;29.53
12951;BME280;6540;50.858;7.232;2023-04-29T10:18:24;51741.56;;;-142.34;28.46
12951;BME280;6540;50.858;7.232;2023-04-29T10:20:51;51745.59;;;-142.34;27.54
12951;BME280;6540;50.858;7.232;2023-04-29T10:23:16;51753.69;;;-142.34;28.31
12951;BME280;6540;50.858;7.232;2023-04-29T10:25:45;51781.91;;;-142.34;27.83
12951;BME280;6540;50.858;7.232;2023-04-29T10:28:14;51729.47;;;-142.34;27.92
12951;BME280;6540;50.858;7.232;2023-04-29T10:30:44;51703.25;;;-142.34;27.61
12951;BME280;6540;50.858;7.232;2023-04-29T10:33:15;51765.78;;;-142.34;29.17
12951;BME280;6540;50.858;7.232;2023-04-29T10:35:42;51749.66;;;-142.34;28.32
12951;BME280;6540;50.858;7.232;2023-04-29T10:38:14;51735.53;;;-142.34;28.63
12951;BME280;6540;50.858;7.232;2023-04-29T10:40:43;51751.66;;;-142.34;28.66
12951;BME280;6540;50.858;7.232;2023-04-29T10:43:12;51765.78;;;-142.34;28.68
12951;BME280;6540;50.858;7.232;2023-04-29T10:45:38;51729.47;;;-142.34;28.13
12951;BME280;6540;50.858;7.232;2023-04-29T10:53:18;51717.38;;;-142.34;28.05
12951;BME280;6540;50.858;7.232;2023-04-29T10:56:02;51723.41;;;-142.34;27.26
12951;BME280;6540;50.858;7.232;2023-04-29T11:01:00;51747.63;;;-142.34;29.07
12951;BME280;6540;50.858;7.232;2023-04-29T11:06:10;51787.97;;;-142.34;30.00
12951;BME280;6540;50.858;7.232;2023-04-29T11:09:08;51769.81;;;-142.34;29.24
12951;BME280;6540;50.858;7.232;2023-04-29T11:11:47;51757.72;;;-142.34;28.63
12951;BME280;6540;50.858;7.232;2023-04-29T11:14:14;51717.38;;;-142.34;27.77
12951;BME280;6540;50.858;7.232;2023-04-29T11:16:47;51749.66;;;-142.34;27.66
12951;BME280;6540;50.858;7.232;2023-04-29T11:19:15;51745.59;;;-142.34;29.53
12951;BME280;6540;50.858;7.232;2023-04-29T11:21:43;51737.53;;;-142.34;28.12
12951;BME280;6540;50.858;7.232;2023-04-29T11:24:09;51773.84;;;-142.34;28.90
12951;BME280;6540;50.858;7.232;2023-04-29T11:26:36;51785.94;;;-142.34;28.91
12951;BME280;6540;50.858;7.232;2023-04-29T11:29:03;51785.94;;;-142.34;28.88
12951;BME280;6540;50.858;7.232;2023-04-29T11:31:30;51785.94;;;-142.34;29.48
12951;BME280;6540;50.858;7.232;2023-04-29T11:33:56;51757.72;;;-142.34;28.51
12951;BME280;6540;50.858;7.232;2023-04-29T11:36:21;51757.72;;;-142.34;29.93
12951;BME280;6540;50.858;7.232;2023-04-29T11:38:46;51800.06;;;-142.34;29.27
12951;BME280;6540;50.858;7.232;2023-04-29T11:41:12;51777.88;;;-142.34;29.26
12951;BME280;6540;50.858;7.232;2023-04-29T11:43:38;51777.88;;;-142.34;28.72
12951;BME280;6540;50.858;7.232;2023-04-29T11:46:11;51745.59;;;-142.34;28.50
12951;BME280;6540;50.858;7.232;2023-04-29T11:48:36;51749.66;;;-142.34;28.81
12951;BME280;6540;50.858;7.232;2023-04-29T11:51:01;51737.53;;;-142.34;28.46
12951;BME280;6540;50.858;7.232;2023-04-29T11:53:27;51733.50;;;-142.34;28.86
12951;BME280;6540;50.858;7.232;2023-04-29T11:55:53;51757.72;;;-142.34;29.60
12951;BME280;6540;50.858;7.232;2023-04-29T11:58:20;51765.78;;;-142.34;29.92
12951;BME280;6540;50.858;7.232;2023-04-29T12:00:49;51787.97;;;-142.34;31.88
12951;BME280;6540;50.858;7.232;2023-04-29T12:03:16;51777.88;;;-142.34;29.67
12951;BME280;6540;50.858;7.232;2023-04-29T12:05:52;51735.53;;;-142.34;28.46
12951;BME280;6540;50.858;7.232;2023-04-29T12:08:24;51737.53;;;-142.34;28.12
12951;BME280;6540;50.858;7.232;2023-04-29T12:10:55;51753.69;;;-142.34;28.27
12951;BME280;6540;50.858;7.232;2023-04-29T12:13:30;51765.78;;;-142.34;28.97
12951;BME280;6540;50.858;7.232;2023-04-29T12:15:56;51761.75;;;-142.34;28.79
12951;BME280;6540;50.858;7.232;2023-04-29T12:18:23;51779.91;;;-142.34;29.52
12951;BME280;6540;50.858;7.232;2023-04-29T12:20:49;51761.75;;;-142.34;28.24
12951;BME280;6540;50.858;7.232;2023-04-29T12:23:23;51737.53;;;-142.34;28.62
12951;BME280;6540;50.858;7.232;2023-04-29T12:25:55;51739.56;;;-142.34;27.95
12951;BME280;6540;50.858;7.232;2023-04-29T12:28:22;51737.53;;;-142.34;29.26
12951;BME280;6540;50.858;7.232;2023-04-29T12:30:49;51737.53;;;-142.34;28.83
12951;BME280;6540;50.858;7.232;2023-04-29T12:33:27;51745.59;;;-142.34;28.73
12951;BME280;6540;50.858;7.232;2023-04-29T12:35:57;51777.88;;;-142.34;29.73
12951;BME280;6540;50.858;7.232;2023-04-29T12:38:28;51771.84;;;-142.34;29.97
12951;BME280;6540;50.858;7.232;2023-04-29T12:40:54;51751.66;;;-142.34;28.29
12951;BME280;6540;50.858;7.232;2023-04-29T12:43:27;51723.41;;;-142.34;27.65
12951;BME280;6540;50.858;7.232;2023-04-29T12:45:59;51749.66;;;-142.34;28.23
12951;BME280;6540;50.858;7.232;2023-04-29T12:48:29;51761.75;;;-142.34;28.37
12951;BME280;6540;50.858;7.232;2023-04-29T12:50:55;51733.50;;;-142.34;28.43
12951;BME280;6540;50.858;7.232;2023-04-29T12:53:22;51787.97;;;-142.34;30.66
12951;BME280;6540;50.858;7.232;2023-04-29T12:55:48;51735.53;;;-142.34;28.99
12951;BME280;6540;50.858;7.232;2023-04-29T12:58:13;51733.50;;;-142.34;28.40
12951;BME280;6540;50.858;7.232;2023-04-29T13:00:39;51735.53;;;-142.34;28.10
12951;BME280;6540;50.858;7.232;2023-04-29T13:03:04;51719.38;;;-142.34;27.58
12951;BME280;6540;50.858;7.232;2023-04-29T13:05:29;51723.41;;;-142.34;27.78
12951;BME280;6540;50.858;7.232;2023-04-29T13:07:55;51707.28;;;-142.34;27.14
12951;BME280;6540;50.858;7.232;2023-04-29T13:10:35;51699.22;;;-142.34;27.66
12951;BME280;6540;50.858;7.232;2023-04-29T13:13:18;51741.56;;;-142.34;28.59
12951;BME280;6540;50.858;7.232;2023-04-29T13:15:44;51721.41;;;-142.34;28.27
12951;BME280;6540;50.858;7.232;2023-04-29T13:18:10;51705.25;;;-142.34;27.84
12951;BME280;6540;50.858;7.232;2023-04-29T13:20:35;51697.19;;;-142.34;28.58